sensor_id;sensor_type;location;lat;lon;timestamp;P1;durP1;ratioP1;P2;durP2;ratioP2
72439;SDS011;60446;50.752;4.352;2023-02-15T00:00:05;36.05;;;15.88;;
72439;SDS011;60446;50.752;4.352;2023-02-15T00:02:37;34.85;;;14.40;;
72439;SDS011;60446;50.752;4.352;2023-02-15T00:05:05;46.75;;;15.90;;
72439;SDS011;60446;50.752;4.352;2023-02-15T00:07:34;41.35;;;16.63;;
72439;SDS011;60446;50.752;4.352;2023-02-15T00:10:01;45.30;;;15.68;;
72439;SDS011;60446;50.752;4.352;2023-02-15T00:12:29;40.15;;;15.80;;
72439;SDS011;60446;50.752;4.352;2023-02-15T00:14:56;41.03;;;14.57;;
72439;SDS011;60446;50.752;4.352;2023-02-15T00:17:23;43.33;;;15.77;;
72439;SDS011;60446;50.752;4.352;2023-02-15T00:19:50;42.20;;;16.38;;
72439;SDS011;60446;50.752;4.352;2023-02-15T00:22:17;41.03;;;16.00;;
72439;SDS011;60446;50.752;4.352;2023-02-15T00:24:45;47.97;;;16.95;;
72439;SDS011;60446;50.752;4.352;2023-02-15T00:27:12;40.05;;;15.52;;
72439;SDS011;60446;50.752;4.352;2023-02-15T00:29:39;40.45;;;14.70;;
72439;SDS011;60446;50.752;4.352;2023-02-15T00:32:06;39.25;;;16.33;;
72439;SDS011;60446;50.752;4.352;2023-02-15T00:34:34;34.83;;;15.13;;
72439;SDS011;60446;50.752;4.352;2023-02-15T00:37:01;39.70;;;15.05;;
72439;SDS011;60446;50.752;4.352;2023-02-15T00:39:28;45.22;;;15.68;;
72439;SDS011;60446;50.752;4.352;2023-02-15T00:41:55;44.28;;;16.35;;
72439;SDS011;60446;50.752;4.352;2023-02-15T00:44:25;37.08;;;15.50;;
72439;SDS011;60446;50.752;4.352;2023-02-15T00:46:55;40.83;;;15.82;;
72439;SDS011;60446;50.752;4.352;2023-02-15T00:49:22;43.15;;;16.15;;
72439;SDS011;60446;50.752;4.352;2023-02-15T00:51:54;38.78;;;15.13;;
72439;SDS011;60446;50.752;4.352;2023-02-15T00:54:21;37.85;;;14.93;;
72439;SDS011;60446;50.752;4.352;2023-02-15T00:56:48;36.15;;;14.75;;
72439;SDS011;60446;50.752;4.352;2023-02-15T00:59:18;38.22;;;13.13;;
72439;SDS011;60446;50.752;4.352;2023-02-15T01:01:46;31.23;;;13.45;;
72439;SDS011;60446;50.752;4.352;2023-02-15T01:04:13;43.83;;;15.55;;
72439;SDS011;60446;50.752;4.352;2023-02-15T01:06:43;38.05;;;14.02;;
72439;SDS011;60446;50.752;4.352;2023-02-15T01:09:10;40.67;;;13.98;;
72439;SDS011;60446;50.752;4.352;2023-02-15T01:11:40;37.60;;;13.70;;
72439;SDS011;60446;50.752;4.352;2023-02-15T01:14:08;40.38;;;14.00;;
72439;SDS011;60446;50.752;4.352;2023-02-15T01:16:37;32.55;;;14.77;;
72439;SDS011;60446;50.752;4.352;2023-02-15T01:19:04;39.17;;;14.95;;
72439;SDS011;60446;50.752;4.352;2023-02-15T01:21:32;36.58;;;14.63;;
72439;SDS011;60446;50.752;4.352;2023-02-15T01:24:02;39.58;;;14.70;;
72439;SDS011;60446;50.752;4.352;2023-02-15T01:26:30;38.03;;;14.02;;
72439;SDS011;60446;50.752;4.352;2023-02-15T01:28:57;35.65;;;13.40;;
72439;SDS011;60446;50.752;4.352;2023-02-15T01:31:25;37.72;;;13.73;;
72439;SDS011;60446;50.752;4.352;2023-02-15T01:33:52;42.92;;;14.85;;
72439;SDS011;60446;50.752;4.352;2023-02-15T01:36:20;37.53;;;13.88;;
72439;SDS011;60446;50.752;4.352;2023-02-15T01:38:48;41.75;;;13.80;;
72439;SDS011;60446;50.752;4.352;2023-02-15T01:41:18;33.10;;;12.70;;
72439;SDS011;60446;50.752;4.352;2023-02-15T01:43:54;36.33;;;13.32;;
72439;SDS011;60446;50.752;4.352;2023-02-15T01:46:26;34.20;;;14.10;;
72439;SDS011;60446;50.752;4.352;2023-02-15T01:49:08;42.30;;;13.85;;
72439;SDS011;60446;50.752;4.352;2023-02-15T01:51:41;33.50;;;12.90;;
72439;SDS011;60446;50.752;4.352;2023-02-15T01:54:29;37.05;;;16.45;;
72439;SDS011;60446;50.752;4.352;2023-02-15T01:57:03;36.50;;;15.20;;
72439;SDS011;60446;50.752;4.352;2023-02-15T01:59:37;46.38;;;16.70;;
72439;SDS011;60446;50.752;4.352;2023-02-15T02:02:09;42.55;;;14.65;;
72439;SDS011;60446;50.752;4.352;2023-02-15T02:04:49;38.08;;;15.00;;
72439;SDS011;60446;50.752;4.352;2023-02-15T02:07:22;46.28;;;16.10;;
72439;SDS011;60446;50.752;4.352;2023-02-15T02:09:54;40.85;;;16.52;;
72439;SDS011;60446;50.752;4.352;2023-02-15T02:12:22;39.90;;;16.52;;
72439;SDS011;60446;50.752;4.352;2023-02-15T02:14:51;45.35;;;15.55;;
72439;SDS011;60446;50.752;4.352;2023-02-15T02:20:20;38.00;;;15.15;;
72439;SDS011;60446;50.752;4.352;2023-02-15T02:28:30;45.85;;;15.85;;
72439;SDS011;60446;50.752;4.352;2023-02-15T02:34:16;36.20;;;14.50;;
72439;SDS011;60446;50.752;4.352;2023-02-15T02:37:23;35.85;;;13.32;;
72439;SDS011;60446;50.752;4.352;2023-02-15T02:46:05;30.92;;;14.32;;
72439;SDS011;60446;50.752;4.352;2023-02-15T02:48:41;32.88;;;13.05;;
72439;SDS011;60446;50.752;4.352;2023-02-15T02:51:11;37.20;;;14.10;;
72439;SDS011;60446;50.752;4.352;2023-02-15T02:53:41;36.08;;;14.45;;
72439;SDS011;60446;50.752;4.352;2023-02-15T02:56:11;38.15;;;13.35;;
72439;SDS011;60446;50.752;4.352;2023-02-15T02:58:55;37.35;;;14.80;;
72439;SDS011;60446;50.752;4.352;2023-02-15T03:01:34;28.08;;;13.00;;
72439;SDS011;60446;50.752;4.352;2023-02-15T03:04:15;30.65;;;12.73;;
72439;SDS011;60446;50.752;4.352;2023-02-15T03:06:54;38.33;;;12.82;;
72439;SDS011;60446;50.752;4.352;2023-02-15T03:09:38;37.35;;;13.65;;
72439;SDS011;60446;50.752;4.352;2023-02-15T03:12:13;37.50;;;12.98;;
72439;SDS011;60446;50.752;4.352;2023-02-15T03:14:56;43.47;;;14.15;;
72439;SDS011;60446;50.752;4.352;2023-02-15T03:17:38;33.72;;;13.70;;
72439;SDS011;60446;50.752;4.352;2023-02-15T03:20:14;29.75;;;12.48;;
72439;SDS011;60446;50.752;4.352;2023-02-15T03:22:48;33.97;;;12.57;;
72439;SDS011;60446;50.752;4.352;2023-02-15T03:25:27;38.45;;;13.27;;
72439;SDS011;60446;50.752;4.352;2023-02-15T03:28:02;30.08;;;11.68;;
72439;SDS011;60446;50.752;4.352;2023-02-15T03:30:34;39.53;;;13.25;;
72439;SDS011;60446;50.752;4.352;2023-02-15T03:33:04;31.52;;;12.10;;
72439;SDS011;60446;50.752;4.352;2023-02-15T03:35:36;32.80;;;11.68;;
72439;SDS011;60446;50.752;4.352;2023-02-15T03:38:30;27.40;;;10.77;;
72439;SDS011;60446;50.752;4.352;2023-02-15T03:41:11;24.55;;;11.00;;
72439;SDS011;60446;50.752;4.352;2023-02-15T03:46:23;33.95;;;13.88;;
72439;SDS011;60446;50.752;4.352;2023-02-15T03:49:31;30.25;;;11.85;;
72439;SDS011;60446;50.752;4.352;2023-02-15T03:52:00;27.90;;;10.45;;
72439;SDS011;60446;50.752;4.352;2023-02-15T03:54:32;33.22;;;12.02;;
72439;SDS011;60446;50.752;4.352;2023-02-15T03:57:24;28.40;;;10.98;;
72439;SDS011;60446;50.752;4.352;2023-02-15T04:00:23;28.80;;;10.25;;
72439;SDS011;60446;50.752;4.352;2023-02-15T04:03:17;34.30;;;10.50;;
72439;SDS011;60446;50.752;4.352;2023-02-15T04:05:56;35.72;;;12.38;;
72439;SDS011;60446;50.752;4.352;2023-02-15T04:08:23;34.90;;;12.82;;
72439;SDS011;60446;50.752;4.352;2023-02-15T04:11:10;27.23;;;11.63;;
72439;SDS011;60446;50.752;4.352;2023-02-15T04:13:37;34.88;;;12.65;;
72439;SDS011;60446;50.752;4.352;2023-02-15T04:16:05;32.78;;;12.82;;
72439;SDS011;60446;50.752;4.352;2023-02-15T04:18:37;34.15;;;11.82;;
72439;SDS011;60446;50.752;4.352;2023-02-15T04:21:25;35.88;;;12.23;;
72439;SDS011;60446;50.752;4.352;2023-02-15T04:24:14;37.25;;;11.73;;
72439;SDS011;60446;50.752;4.352;2023-02-15T04:27:00;32.33;;;12.45;;
72439;SDS011;60446;50.752;4.352;2023-02-15T04:29:29;29.10;;;11.32;;
72439;SDS011;60446;50.752;4.352;2023-02-15T04:31:58;34.85;;;13.10;;
72439;SDS011;60446;50.752;4.352;2023-02-15T04:34:27;35.72;;;11.95;;
72439;SDS011;60446;50.752;4.352;2023-02-15T04:36:54;32.05;;;12.85;;
72439;SDS011;60446;50.752;4.352;2023-02-15T04:39:21;39.95;;;12.50;;
72439;SDS011;60446;50.752;4.352;2023-02-15T04:41:49;39.40;;;13.98;;
72439;SDS011;60446;50.752;4.352;2023-02-15T04:44:16;39.40;;;14.07;;
72439;SDS011;60446;50.752;4.352;2023-02-15T04:46:43;44.25;;;15.15;;
72439;SDS011;60446;50.752;4.352;2023-02-15T04:49:10;38.42;;;14.05;;
72439;SDS011;60446;50.752;4.352;2023-02-15T04:51:37;38.80;;;14.63;;
72439;SDS011;60446;50.752;4.352;2023-02-15T04:54:04;32.28;;;13.82;;
72439;SDS011;60446;50.752;4.352;2023-02-15T04:56:32;41.38;;;14.40;;
72439;SDS011;60446;50.752;4.352;2023-02-15T04:59:01;35.50;;;14.18;;
72439;SDS011;60446;50.752;4.352;2023-02-15T05:01:28;38.22;;;14.05;;
72439;SDS011;60446;50.752;4.352;2023-02-15T05:03:55;36.95;;;13.52;;
72439;SDS011;60446;50.752;4.352;2023-02-15T05:06:23;42.28;;;14.75;;
72439;SDS011;60446;50.752;4.352;2023-02-15T05:08:50;35.42;;;14.93;;
72439;SDS011;60446;50.752;4.352;2023-02-15T05:11:17;36.67;;;14.18;;
72439;SDS011;60446;50.752;4.352;2023-02-15T05:13:45;31.58;;;14.23;;
72439;SDS011;60446;50.752;4.352;2023-02-15T05:16:12;46.15;;;14.60;;
72439;SDS011;60446;50.752;4.352;2023-02-15T05:18:39;39.13;;;13.52;;
72439;SDS011;60446;50.752;4.352;2023-02-15T05:21:07;37.10;;;14.77;;
72439;SDS011;60446;50.752;4.352;2023-02-15T05:23:34;38.05;;;14.45;;
72439;SDS011;60446;50.752;4.352;2023-02-15T05:26:01;33.92;;;14.13;;
72439;SDS011;60446;50.752;4.352;2023-02-15T05:28:47;32.85;;;12.30;;
72439;SDS011;60446;50.752;4.352;2023-02-15T05:31:16;37.95;;;14.07;;
72439;SDS011;60446;50.752;4.352;2023-02-15T05:33:45;38.70;;;13.52;;
72439;SDS011;60446;50.752;4.352;2023-02-15T05:36:13;38.30;;;13.85;;
72439;SDS011;60446;50.752;4.352;2023-02-15T05:38:40;30.15;;;13.63;;
72439;SDS011;60446;50.752;4.352;2023-02-15T05:41:08;35.47;;;13.93;;
72439;SDS011;60446;50.752;4.352;2023-02-15T05:43:37;37.05;;;14.63;;
72439;SDS011;60446;50.752;4.352;2023-02-15T05:46:04;38.72;;;14.73;;
72439;SDS011;60446;50.752;4.352;2023-02-15T05:48:33;42.35;;;14.82;;
72439;SDS011;60446;50.752;4.352;2023-02-15T05:53:34;41.35;;;15.00;;
72439;SDS011;60446;50.752;4.352;2023-02-15T05:56:06;33.72;;;12.68;;
72439;SDS011;60446;50.752;4.352;2023-02-15T05:58:38;33.83;;;13.10;;
72439;SDS011;60446;50.752;4.352;2023-02-15T06:01:11;30.88;;;11.63;;
72439;SDS011;60446;50.752;4.352;2023-02-15T06:03:40;41.58;;;12.68;;
72439;SDS011;60446;50.752;4.352;2023-02-15T06:06:08;34.88;;;12.70;;
72439;SDS011;60446;50.752;4.352;2023-02-15T06:08:36;32.28;;;12.43;;
72439;SDS011;60446;50.752;4.352;2023-02-15T06:11:04;35.85;;;12.82;;
72439;SDS011;60446;50.752;4.352;2023-02-15T06:13:32;34.92;;;12.55;;
72439;SDS011;60446;50.752;4.352;2023-02-15T06:16:03;32.90;;;13.18;;
72439;SDS011;60446;50.752;4.352;2023-02-15T06:18:32;36.22;;;14.98;;
72439;SDS011;60446;50.752;4.352;2023-02-15T06:21:00;34.63;;;12.45;;
72439;SDS011;60446;50.752;4.352;2023-02-15T06:23:27;34.25;;;11.05;;
72439;SDS011;60446;50.752;4.352;2023-02-15T06:25:54;34.55;;;12.98;;
72439;SDS011;60446;50.752;4.352;2023-02-15T06:28:22;31.00;;;11.13;;
72439;SDS011;60446;50.752;4.352;2023-02-15T06:30:51;31.75;;;11.90;;
72439;SDS011;60446;50.752;4.352;2023-02-15T06:33:19;27.98;;;12.52;;
72439;SDS011;60446;50.752;4.352;2023-02-15T06:35:46;27.77;;;10.70;;
72439;SDS011;60446;50.752;4.352;2023-02-15T06:38:13;32.63;;;11.90;;
72439;SDS011;60446;50.752;4.352;2023-02-15T06:40:43;32.50;;;12.00;;
72439;SDS011;60446;50.752;4.352;2023-02-15T06:43:10;30.20;;;12.48;;
72439;SDS011;60446;50.752;4.352;2023-02-15T06:45:37;27.10;;;12.70;;
72439;SDS011;60446;50.752;4.352;2023-02-15T06:48:04;31.98;;;13.48;;
72439;SDS011;60446;50.752;4.352;2023-02-15T06:50:34;29.08;;;12.15;;
72439;SDS011;60446;50.752;4.352;2023-02-15T06:53:01;44.55;;;13.57;;
72439;SDS011;60446;50.752;4.352;2023-02-15T06:55:29;33.28;;;12.90;;
72439;SDS011;60446;50.752;4.352;2023-02-15T06:57:56;30.25;;;10.55;;
72439;SDS011;60446;50.752;4.352;2023-02-15T07:00:23;28.58;;;10.80;;
72439;SDS011;60446;50.752;4.352;2023-02-15T07:02:57;41.10;;;12.57;;
72439;SDS011;60446;50.752;4.352;2023-02-15T07:05:25;39.58;;;13.40;;
72439;SDS011;60446;50.752;4.352;2023-02-15T07:07:58;38.47;;;11.80;;
72439;SDS011;60446;50.752;4.352;2023-02-15T07:10:27;37.40;;;12.32;;
72439;SDS011;60446;50.752;4.352;2023-02-15T07:12:54;38.15;;;13.77;;
72439;SDS011;60446;50.752;4.352;2023-02-15T07:15:21;35.95;;;13.07;;
72439;SDS011;60446;50.752;4.352;2023-02-15T07:17:49;45.67;;;15.43;;
72439;SDS011;60446;50.752;4.352;2023-02-15T07:20:19;48.58;;;17.02;;
72439;SDS011;60446;50.752;4.352;2023-02-15T07:22:48;41.17;;;15.55;;
72439;SDS011;60446;50.752;4.352;2023-02-15T07:25:16;41.47;;;15.98;;
72439;SDS011;60446;50.752;4.352;2023-02-15T07:27:44;47.95;;;16.77;;
72439;SDS011;60446;50.752;4.352;2023-02-15T07:30:13;48.13;;;17.20;;
72439;SDS011;60446;50.752;4.352;2023-02-15T07:32:43;37.38;;;13.70;;
72439;SDS011;60446;50.752;4.352;2023-02-15T07:35:31;39.15;;;13.50;;
72439;SDS011;60446;50.752;4.352;2023-02-15T07:38:00;33.33;;;12.95;;
72439;SDS011;60446;50.752;4.352;2023-02-15T07:40:27;37.45;;;14.13;;
72439;SDS011;60446;50.752;4.352;2023-02-15T07:42:57;30.58;;;13.20;;
72439;SDS011;60446;50.752;4.352;2023-02-15T07:45:25;38.80;;;14.95;;
72439;SDS011;60446;50.752;4.352;2023-02-15T07:47:53;40.42;;;14.82;;
72439;SDS011;60446;50.752;4.352;2023-02-15T07:50:20;42.25;;;15.25;;
72439;SDS011;60446;50.752;4.352;2023-02-15T07:52:48;35.60;;;14.48;;
72439;SDS011;60446;50.752;4.352;2023-02-15T07:55:15;35.63;;;13.77;;
72439;SDS011;60446;50.752;4.352;2023-02-15T07:57:43;38.38;;;13.70;;
72439;SDS011;60446;50.752;4.352;2023-02-15T08:00:12;39.42;;;16.33;;
72439;SDS011;60446;50.752;4.352;2023-02-15T08:02:41;40.33;;;15.10;;
72439;SDS011;60446;50.752;4.352;2023-02-15T08:05:14;39.33;;;14.52;;
72439;SDS011;60446;50.752;4.352;2023-02-15T08:07:43;36.42;;;16.05;;
72439;SDS011;60446;50.752;4.352;2023-02-15T08:10:10;34.65;;;14.35;;
72439;SDS011;60446;50.752;4.352;2023-02-15T08:12:57;35.22;;;13.70;;
72439;SDS011;60446;50.752;4.352;2023-02-15T08:15:24;43.58;;;15.60;;
72439;SDS011;60446;50.752;4.352;2023-02-15T08:17:54;39.50;;;14.70;;
72439;SDS011;60446;50.752;4.352;2023-02-15T08:20:24;34.10;;;12.65;;
72439;SDS011;60446;50.752;4.352;2023-02-15T08:22:51;42.83;;;16.33;;
72439;SDS011;60446;50.752;4.352;2023-02-15T08:25:18;42.75;;;16.27;;
72439;SDS011;60446;50.752;4.352;2023-02-15T08:27:45;46.65;;;15.45;;
72439;SDS011;60446;50.752;4.352;2023-02-15T08:30:13;40.67;;;15.60;;
72439;SDS011;60446;50.752;4.352;2023-02-15T08:32:40;45.25;;;15.52;;
72439;SDS011;60446;50.752;4.352;2023-02-15T08:35:08;40.22;;;15.95;;
72439;SDS011;60446;50.752;4.352;2023-02-15T08:37:35;43.35;;;15.10;;
72439;SDS011;60446;50.752;4.352;2023-02-15T08:40:02;39.90;;;15.57;;
72439;SDS011;60446;50.752;4.352;2023-02-15T08:42:32;34.30;;;13.35;;
72439;SDS011;60446;50.752;4.352;2023-02-15T08:45:00;41.10;;;14.50;;
72439;SDS011;60446;50.752;4.352;2023-02-15T08:47:27;42.03;;;14.85;;
72439;SDS011;60446;50.752;4.352;2023-02-15T08:49:54;42.50;;;15.38;;
72439;SDS011;60446;50.752;4.352;2023-02-15T08:52:22;42.03;;;13.35;;
72439;SDS011;60446;50.752;4.352;2023-02-15T08:54:49;38.90;;;13.35;;
72439;SDS011;60446;50.752;4.352;2023-02-15T08:57:16;37.25;;;14.05;;
72439;SDS011;60446;50.752;4.352;2023-02-15T08:59:43;36.25;;;13.98;;
72439;SDS011;60446;50.752;4.352;2023-02-15T09:02:10;41.22;;;15.02;;
72439;SDS011;60446;50.752;4.352;2023-02-15T09:04:37;41.88;;;15.48;;
72439;SDS011;60446;50.752;4.352;2023-02-15T09:07:04;41.78;;;14.73;;
72439;SDS011;60446;50.752;4.352;2023-02-15T09:09:32;36.90;;;13.85;;
72439;SDS011;60446;50.752;4.352;2023-02-15T09:11:59;34.22;;;13.55;;
72439;SDS011;60446;50.752;4.352;2023-02-15T09:14:26;39.55;;;13.13;;
72439;SDS011;60446;50.752;4.352;2023-02-15T09:16:54;37.78;;;14.85;;
72439;SDS011;60446;50.752;4.352;2023-02-15T09:19:22;36.70;;;14.73;;
72439;SDS011;60446;50.752;4.352;2023-02-15T09:21:50;36.70;;;14.68;;
72439;SDS011;60446;50.752;4.352;2023-02-15T09:24:17;39.80;;;14.40;;
72439;SDS011;60446;50.752;4.352;2023-02-15T09:26:46;36.92;;;13.98;;
72439;SDS011;60446;50.752;4.352;2023-02-15T09:29:15;32.08;;;12.82;;
72439;SDS011;60446;50.752;4.352;2023-02-15T09:31:48;40.92;;;13.45;;
72439;SDS011;60446;50.752;4.352;2023-02-15T09:34:18;32.72;;;12.05;;
72439;SDS011;60446;50.752;4.352;2023-02-15T09:36:48;34.22;;;12.35;;
72439;SDS011;60446;50.752;4.352;2023-02-15T09:39:20;30.50;;;11.38;;
72439;SDS011;60446;50.752;4.352;2023-02-15T09:59:05;27.05;;;9.68;;
72439;SDS011;60446;50.752;4.352;2023-02-15T10:05:22;29.95;;;9.55;;
72439;SDS011;60446;50.752;4.352;2023-02-15T10:11:26;34.05;;;11.00;;
72439;SDS011;60446;50.752;4.352;2023-02-15T10:25:46;24.35;;;9.77;;
72439;SDS011;60446;50.752;4.352;2023-02-15T10:28:48;21.60;;;9.30;;
72439;SDS011;60446;50.752;4.352;2023-02-15T10:40:00;27.42;;;10.32;;
72439;SDS011;60446;50.752;4.352;2023-02-15T10:45:31;25.53;;;9.93;;
72439;SDS011;60446;50.752;4.352;2023-02-15T10:51:05;25.67;;;10.07;;
72439;SDS011;60446;50.752;4.352;2023-02-15T11:02:46;25.02;;;10.00;;
72439;SDS011;60446;50.752;4.352;2023-02-15T11:08:35;26.45;;;10.35;;
72439;SDS011;60446;50.752;4.352;2023-02-15T11:11:21;26.20;;;9.35;;
72439;SDS011;60446;50.752;4.352;2023-02-15T11:14:38;29.83;;;10.27;;
72439;SDS011;60446;50.752;4.352;2023-02-15T11:17:40;29.52;;;10.25;;
72439;SDS011;60446;50.752;4.352;2023-02-15T11:20:24;30.73;;;10.93;;
72439;SDS011;60446;50.752;4.352;2023-02-15T11:23:07;29.75;;;9.60;;
72439;SDS011;60446;50.752;4.352;2023-02-15T11:25:52;28.35;;;10.38;;
72439;SDS011;60446;50.752;4.352;2023-02-15T11:28:39;27.70;;;10.23;;
72439;SDS011;60446;50.752;4.352;2023-02-15T11:31:25;31.77;;;11.32;;
72439;SDS011;60446;50.752;4.352;2023-02-15T11:34:10;29.23;;;10.63;;
72439;SDS011;60446;50.752;4.352;2023-02-15T11:36:58;25.95;;;10.27;;
72439;SDS011;60446;50.752;4.352;2023-02-15T11:39:32;30.15;;;10.32;;
72439;SDS011;60446;50.752;4.352;2023-02-15T11:42:09;27.87;;;11.53;;
72439;SDS011;60446;50.752;4.352;2023-02-15T11:44:52;36.72;;;10.52;;
72439;SDS011;60446;50.752;4.352;2023-02-15T11:47:32;33.40;;;10.95;;
72439;SDS011;60446;50.752;4.352;2023-02-15T11:50:00;35.67;;;11.55;;
72439;SDS011;60446;50.752;4.352;2023-02-15T11:52:28;29.17;;;11.77;;
72439;SDS011;60446;50.752;4.352;2023-02-15T11:54:55;32.87;;;12.97;;
72439;SDS011;60446;50.752;4.352;2023-02-15T12:03:07;29.30;;;11.10;;
72439;SDS011;60446;50.752;4.352;2023-02-15T12:06:00;32.42;;;11.88;;
72439;SDS011;60446;50.752;4.352;2023-02-15T12:08:42;33.33;;;12.37;;
72439;SDS011;60446;50.752;4.352;2023-02-15T12:11:45;31.83;;;10.82;;
72439;SDS011;60446;50.752;4.352;2023-02-15T12:14:13;34.10;;;13.18;;
72439;SDS011;60446;50.752;4.352;2023-02-15T12:22:18;34.97;;;13.27;;
72439;SDS011;60446;50.752;4.352;2023-02-15T12:24:55;31.00;;;12.20;;
72439;SDS011;60446;50.752;4.352;2023-02-15T12:27:28;34.10;;;12.48;;
72439;SDS011;60446;50.752;4.352;2023-02-15T12:29:59;31.65;;;11.77;;
72439;SDS011;60446;50.752;4.352;2023-02-15T12:32:53;31.20;;;11.25;;
72439;SDS011;60446;50.752;4.352;2023-02-15T12:35:27;31.73;;;13.23;;
72439;SDS011;60446;50.752;4.352;2023-02-15T12:38:03;31.88;;;11.93;;
72439;SDS011;60446;50.752;4.352;2023-02-15T12:40:39;30.48;;;12.77;;
72439;SDS011;60446;50.752;4.352;2023-02-15T12:43:29;34.47;;;12.60;;
72439;SDS011;60446;50.752;4.352;2023-02-15T12:49:05;34.70;;;13.40;;
72439;SDS011;60446;50.752;4.352;2023-02-15T12:51:48;38.72;;;13.48;;
72439;SDS011;60446;50.752;4.352;2023-02-15T12:54:38;34.25;;;13.48;;
72439;SDS011;60446;50.752;4.352;2023-02-15T12:57:27;33.42;;;12.80;;
72439;SDS011;60446;50.752;4.352;2023-02-15T13:00:00;37.60;;;13.85;;
72439;SDS011;60446;50.752;4.352;2023-02-15T13:05:21;35.78;;;13.98;;
72439;SDS011;60446;50.752;4.352;2023-02-15T13:08:15;37.78;;;13.93;;
72439;SDS011;60446;50.752;4.352;2023-02-15T13:10:53;39.28;;;13.75;;
72439;SDS011;60446;50.752;4.352;2023-02-15T13:13:36;38.33;;;14.40;;
72439;SDS011;60446;50.752;4.352;2023-02-15T13:16:20;34.70;;;14.70;;
72439;SDS011;60446;50.752;4.352;2023-02-15T13:19:48;39.08;;;14.88;;
72439;SDS011;60446;50.752;4.352;2023-02-15T13:22:43;36.88;;;13.90;;
72439;SDS011;60446;50.752;4.352;2023-02-15T13:25:21;38.85;;;15.65;;
72439;SDS011;60446;50.752;4.352;2023-02-15T13:28:05;35.58;;;14.38;;
72439;SDS011;60446;50.752;4.352;2023-02-15T13:30:45;39.27;;;14.07;;
72439;SDS011;60446;50.752;4.352;2023-02-15T13:33:22;33.88;;;13.32;;
72439;SDS011;60446;50.752;4.352;2023-02-15T13:36:29;32.63;;;13.27;;
72439;SDS011;60446;50.752;4.352;2023-02-15T13:54:26;33.08;;;13.07;;
72439;SDS011;60446;50.752;4.352;2023-02-15T14:11:04;34.35;;;13.80;;
72439;SDS011;60446;50.752;4.352;2023-02-15T14:19:46;37.10;;;13.63;;
72439;SDS011;60446;50.752;4.352;2023-02-15T14:22:45;34.90;;;13.27;;
72439;SDS011;60446;50.752;4.352;2023-02-15T14:25:40;35.42;;;13.90;;
72439;SDS011;60446;50.752;4.352;2023-02-15T14:28:16;32.30;;;14.07;;
72439;SDS011;60446;50.752;4.352;2023-02-15T14:30:53;36.78;;;15.13;;
72439;SDS011;60446;50.752;4.352;2023-02-15T14:36:11;38.90;;;14.02;;
72439;SDS011;60446;50.752;4.352;2023-02-15T14:42:09;33.93;;;13.10;;
72439;SDS011;60446;50.752;4.352;2023-02-15T14:50:45;34.72;;;14.13;;
72439;SDS011;60446;50.752;4.352;2023-02-15T15:03:57;40.85;;;16.08;;
72439;SDS011;60446;50.752;4.352;2023-02-15T15:06:37;38.45;;;14.75;;
72439;SDS011;60446;50.752;4.352;2023-02-15T15:09:12;33.70;;;14.50;;
72439;SDS011;60446;50.752;4.352;2023-02-15T15:14:49;36.58;;;14.13;;
72439;SDS011;60446;50.752;4.352;2023-02-15T15:20:36;39.80;;;15.23;;
72439;SDS011;60446;50.752;4.352;2023-02-15T15:25:48;39.40;;;16.42;;
72439;SDS011;60446;50.752;4.352;2023-02-15T15:42:12;39.80;;;15.57;;
72439;SDS011;60446;50.752;4.352;2023-02-15T15:45:43;44.17;;;15.75;;
72439;SDS011;60446;50.752;4.352;2023-02-15T15:50:59;41.27;;;13.53;;
72439;SDS011;60446;50.752;4.352;2023-02-15T15:53:32;44.15;;;15.40;;
72439;SDS011;60446;50.752;4.352;2023-02-15T15:56:11;36.90;;;15.23;;
72439;SDS011;60446;50.752;4.352;2023-02-15T15:58:49;41.03;;;14.52;;
72439;SDS011;60446;50.752;4.352;2023-02-15T16:01:29;46.05;;;15.98;;
72439;SDS011;60446;50.752;4.352;2023-02-15T16:04:11;41.93;;;15.17;;
72439;SDS011;60446;50.752;4.352;2023-02-15T16:06:58;36.00;;;14.88;;
72439;SDS011;60446;50.752;4.352;2023-02-15T16:12:50;38.03;;;15.40;;
72439;SDS011;60446;50.752;4.352;2023-02-15T16:15:23;46.28;;;15.95;;
72439;SDS011;60446;50.752;4.352;2023-02-15T16:18:10;39.50;;;14.00;;
72439;SDS011;60446;50.752;4.352;2023-02-15T16:20:48;41.65;;;15.43;;
72439;SDS011;60446;50.752;4.352;2023-02-15T16:23:39;41.63;;;14.35;;
72439;SDS011;60446;50.752;4.352;2023-02-15T16:29:52;41.60;;;14.95;;
72439;SDS011;60446;50.752;4.352;2023-02-15T16:32:21;42.00;;;15.73;;
72439;SDS011;60446;50.752;4.352;2023-02-15T16:34:59;42.88;;;15.25;;
72439;SDS011;60446;50.752;4.352;2023-02-15T16:37:33;39.00;;;15.25;;
72439;SDS011;60446;50.752;4.352;2023-02-15T16:40:03;37.33;;;15.35;;
72439;SDS011;60446;50.752;4.352;2023-02-15T16:42:54;41.55;;;14.95;;
72439;SDS011;60446;50.752;4.352;2023-02-15T16:45:28;42.67;;;16.37;;
72439;SDS011;60446;50.752;4.352;2023-02-15T16:47:59;39.38;;;15.68;;
72439;SDS011;60446;50.752;4.352;2023-02-15T16:50:34;41.75;;;15.32;;
72439;SDS011;60446;50.752;4.352;2023-02-15T16:53:04;41.45;;;16.15;;
72439;SDS011;60446;50.752;4.352;2023-02-15T16:55:42;35.85;;;14.48;;
72439;SDS011;60446;50.752;4.352;2023-02-15T16:58:17;47.73;;;16.50;;
72439;SDS011;60446;50.752;4.352;2023-02-15T17:00:58;38.00;;;15.35;;
72439;SDS011;60446;50.752;4.352;2023-02-15T17:03:39;38.63;;;15.10;;
72439;SDS011;60446;50.752;4.352;2023-02-15T17:06:26;40.45;;;16.02;;
72439;SDS011;60446;50.752;4.352;2023-02-15T17:09:03;46.92;;;17.17;;
72439;SDS011;60446;50.752;4.352;2023-02-15T17:11:40;40.53;;;17.07;;
72439;SDS011;60446;50.752;4.352;2023-02-15T17:14:16;44.05;;;16.08;;
72439;SDS011;60446;50.752;4.352;2023-02-15T17:17:00;46.53;;;16.90;;
72439;SDS011;60446;50.752;4.352;2023-02-15T17:19:50;41.92;;;16.30;;
72439;SDS011;60446;50.752;4.352;2023-02-15T17:22:23;47.17;;;15.88;;
72439;SDS011;60446;50.752;4.352;2023-02-15T17:24:58;45.73;;;17.17;;
72439;SDS011;60446;50.752;4.352;2023-02-15T17:27:29;44.53;;;17.25;;
72439;SDS011;60446;50.752;4.352;2023-02-15T17:30:00;46.60;;;18.17;;
72439;SDS011;60446;50.752;4.352;2023-02-15T17:32:32;48.97;;;18.05;;
72439;SDS011;60446;50.752;4.352;2023-02-15T17:35:14;38.97;;;15.43;;
72439;SDS011;60446;50.752;4.352;2023-02-15T17:37:59;45.90;;;16.67;;
72439;SDS011;60446;50.752;4.352;2023-02-15T17:40:47;44.17;;;15.25;;
72439;SDS011;60446;50.752;4.352;2023-02-15T17:43:15;48.45;;;17.33;;
72439;SDS011;60446;50.752;4.352;2023-02-15T17:45:47;41.53;;;14.93;;
72439;SDS011;60446;50.752;4.352;2023-02-15T17:48:20;44.38;;;15.93;;
72439;SDS011;60446;50.752;4.352;2023-02-15T17:51:00;41.27;;;15.97;;
72439;SDS011;60446;50.752;4.352;2023-02-15T17:53:31;42.67;;;16.00;;
72439;SDS011;60446;50.752;4.352;2023-02-15T17:55:59;40.78;;;15.77;;
72439;SDS011;60446;50.752;4.352;2023-02-15T17:58:32;36.50;;;15.55;;
72439;SDS011;60446;50.752;4.352;2023-02-15T18:00:59;44.13;;;16.25;;
72439;SDS011;60446;50.752;4.352;2023-02-15T18:03:49;42.53;;;14.93;;
72439;SDS011;60446;50.752;4.352;2023-02-15T18:06:38;40.70;;;16.00;;
72439;SDS011;60446;50.752;4.352;2023-02-15T18:09:26;42.60;;;16.63;;
72439;SDS011;60446;50.752;4.352;2023-02-15T18:12:25;42.65;;;16.33;;
72439;SDS011;60446;50.752;4.352;2023-02-15T18:14:58;45.95;;;15.70;;